Time;durP1;ratioP1;P1;durP2;ratioP2;P2;SDS_P1;SDS_P2;PMS_P1;PMS_P2;Temp;Humidity;BMP_temperature;BMP_pressure;BME280_temperature;BME280_humidity;BME280_pressure;Samples;Min_cycle;Max_cycle;Signal;HPM_P1;HPM_P2
2023/07/20 00:07:16;;;;;;;8.00;6.78;;;;;;;16.90;77.06;100655.72;15620203;28;20488;-50
2023/07/20 00:14:49;;;;;;;9.60;7.00;;;;;;;16.52;77.30;100614.06;15578652;28;20078;-50
2023/07/20 00:22:23;;;;;;;8.95;7.47;;;;;;;17.44;75.16;100651.13;15540183;28;20042;-52
2023/07/20 00:29:56;;;;;;;8.43;7.57;;;;;;;16.68;78.15;100655.72;15557480;28;20081;-54
2023/07/20 00:37:30;;;;;;;13.18;8.13;;;;;;;16.78;77.17;100636.88;15539593;28;20030;-52
2023/07/20 00:45:05;;;;;;;10.95;8.20;;;;;;;16.70;76.10;100604.81;15545535;28;20487;-52
2023/07/20 00:52:40;;;;;;;12.65;8.77;;;;;;;16.58;77.82;100664.53;15537501;28;20114;-52
2023/07/20 01:00:13;;;;;;;12.57;8.75;;;;;;;16.20;79.07;100646.44;15554191;28;20046;-49
2023/07/20 01:08:02;;;;;;;11.18;9.32;;;;;;;16.70;77.27;100657.09;15522684;28;20105;-52
2023/07/20 01:15:35;;;;;;;11.00;9.68;;;;;;;16.38;78.03;100648.84;15490885;28;20046;-49
2023/07/20 01:23:39;;;;;;;10.57;9.48;;;;;;;16.83;76.83;100651.34;15476807;28;20057;-50
2023/07/20 01:31:25;;;;;;;14.27;9.77;;;;;;;17.17;74.78;100658.47;15505911;28;20129;-52
2023/07/20 01:38:59;;;;;;;10.82;9.52;;;;;;;16.74;76.89;100647.44;15554713;28;20117;-50
2023/07/20 01:46:33;;;;;;;12.07;9.32;;;;;;;17.11;74.91;100663.00;15554205;28;20046;-51
2023/07/20 01:54:07;;;;;;;10.60;9.30;;;;;;;17.05;74.64;100637.72;15536401;28;20423;-53
2023/07/20 02:01:41;;;;;;;12.02;9.50;;;;;;;17.14;73.28;100646.22;15535898;28;20096;-53
2023/07/20 02:09:14;;;;;;;10.93;9.00;;;;;;;16.37;76.07;100660.75;15560730;28;20129;-52
2023/07/20 02:16:52;;;;;;;12.93;9.60;;;;;;;15.76;78.68;100649.84;15503713;28;20049;-54
2023/07/20 02:24:26;;;;;;;10.27;9.05;;;;;;;16.65;74.67;100650.81;15486121;28;20054;-51
2023/07/20 02:32:00;;;;;;;12.00;9.63;;;;;;;15.90;77.21;100652.19;15501647;28;20506;-54
2023/07/20 02:39:34;;;;;;;11.95;10.65;;;;;;;16.15;76.43;100657.19;15486353;28;20054;-53
2023/07/20 02:47:08;;;;;;;10.77;9.65;;;;;;;16.10;76.58;100662.53;15501837;28;20039;-53
2023/07/20 02:54:42;;;;;;;12.02;10.82;;;;;;;16.21;75.89;100659.72;15501349;28;20089;-53
2023/07/20 03:02:26;;;;;;;13.43;11.67;;;;;;;15.53;79.44;100672.44;15485728;28;20078;-53
2023/07/20 03:09:59;;;;;;;16.83;12.73;;;;;;;15.53;79.76;100685.97;15502308;28;20053;-54
2023/07/20 03:17:34;;;;;;;18.88;15.15;;;;;;;15.90;78.59;100674.69;15560697;28;20054;-52
2023/07/20 03:25:10;;;;;;;17.58;15.73;;;;;;;16.18;77.74;100691.88;15544113;28;20495;-52
2023/07/20 03:32:45;;;;;;;17.67;15.77;;;;;;;16.44;76.44;100706.63;15543015;28;20053;-52
2023/07/20 03:40:18;;;;;;;19.83;16.70;;;;;;;16.65;75.38;100694.19;15558628;28;20046;-52
2023/07/20 03:47:52;;;;;;;19.48;16.45;;;;;;;16.33;76.84;100697.53;15559574;28;20124;-52
2023/07/20 03:55:25;;;;;;;20.83;16.58;;;;;;;16.53;76.04;100697.00;15542102;28;20076;-52
2023/07/20 04:03:00;;;;;;;23.27;16.75;;;;;;;16.52;76.01;100698.06;15542573;28;20042;-56
2023/07/20 04:10:33;;;;;;;19.77;16.85;;;;;;;16.19;77.74;100702.47;15540497;28;20069;-53
2023/07/20 04:18:07;;;;;;;;;;;;;;;16.26;76.69;100703.13;15558780;28;20066;-51
2023/07/20 04:25:41;;;;;;;20.85;18.35;;;;;;;16.44;77.03;100717.44;15557436;28;19962;-53
2023/07/20 04:33:18;;;;;;;20.45;17.95;;;;;;;16.18;78.06;100711.69;15540036;28;20065;-50
2023/07/20 04:40:52;;;;;;;23.38;18.00;;;;;;;16.72;75.75;100717.31;15539602;28;20068;-51
2023/07/20 04:48:26;;;;;;;20.90;17.73;;;;;;;16.78;76.04;100715.50;15539027;28;20307;-53
2023/07/20 04:56:01;;;;;;;26.52;17.88;;;;;;;16.60;75.82;100719.31;15539268;28;20290;-52
2023/07/20 05:03:37;;;;;;;20.80;18.27;;;;;;;16.94;75.41;100711.09;15532917;28;20042;-51
2023/07/20 05:11:10;;;;;;;21.42;16.38;;;;;;;16.74;75.35;100731.47;15507620;23;20046;-47
2023/07/20 05:18:45;;;;;;;17.67;14.18;;;;;;;16.91;75.09;100731.38;15491055;28;20222;-46
2023/07/20 05:26:19;;;;;;;15.57;13.38;;;;;;;17.23;74.10;100727.97;15476049;28;20503;-45
2023/07/20 05:33:53;;;;;;;18.85;14.43;;;;;;;17.27;74.63;100731.81;15493077;28;20054;-48
2023/07/20 05:41:26;;;;;;;15.93;13.15;;;;;;;17.28;74.49;100741.59;15490730;28;20038;-52
2023/07/20 05:49:00;;;;;;;18.20;12.90;;;;;;;17.34;73.42;100749.50;15481058;28;20487;-46
2023/07/20 05:56:34;;;;;;;14.35;11.80;;;;;;;17.39;73.05;100747.94;15491768;28;20057;-47
2023/07/20 06:04:09;;;;;;;15.93;11.60;;;;;;;17.77;73.53;100752.44;15492850;28;20084;-49
2023/07/20 06:11:43;;;;;;;16.60;11.63;;;;;;;17.94;71.68;100744.13;15492717;28;20527;-48
2023/07/20 06:19:17;;;;;;;13.90;11.20;;;;;;;16.91;72.80;100755.78;15492353;28;20081;-47
2023/07/20 06:26:50;;;;;;;14.15;10.30;;;;;;;17.25;71.50;100772.75;15491903;28;20053;-47
2023/07/20 06:34:24;;;;;;;10.73;9.10;;;;;;;17.23;72.00;100757.81;15491725;28;20046;-48
2023/07/20 06:41:57;;;;;;;10.98;6.75;;;;;;;17.73;70.04;100762.97;15509388;28;20041;-47
2023/07/20 06:49:32;;;;;;;5.75;4.88;;;;;;;17.45;71.33;100741.50;15473130;28;20042;-48
2023/07/20 06:57:06;;;;;;;5.97;3.85;;;;;;;18.11;68.11;100774.72;15498201;28;20074;-46
2023/07/20 07:04:40;;;;;;;4.25;2.70;;;;;;;17.79;67.71;100772.81;15500026;28;20046;-48
2023/07/20 07:12:14;;;;;;;5.25;2.60;;;;;;;18.77;66.77;100775.19;15500330;28;20046;-49
2023/07/20 07:19:48;;;;;;;3.88;1.65;;;;;;;18.50;63.36;100783.41;15500603;28;20050;-49
2023/07/20 07:27:21;;;;;;;2.28;1.40;;;;;;;18.76;63.23;100780.91;15500445;28;20081;-52
2023/07/20 07:34:56;;;;;;;2.13;1.30;;;;;;;18.66;62.98;100786.25;15499643;28;20046;-47
2023/07/20 07:42:30;;;;;;;3.08;1.10;;;;;;;18.68;62.48;100787.59;15514172;28;20514;-47
2023/07/20 07:50:05;;;;;;;2.30;1.10;;;;;;;18.95;60.26;100789.41;15497692;28;20472;-48
2023/07/20 07:57:39;;;;;;;3.63;0.90;;;;;;;18.41;59.24;100786.88;15498230;28;20108;-48
2023/07/20 08:05:13;;;;;;;;;;;;;;;18.28;60.70;100783.56;15480588;28;20133;-48
2023/07/20 08:12:46;;;;;;;1.90;0.60;;;;;;;18.76;58.99;100811.63;15479930;28;19960;-51
2023/07/20 08:20:26;;;;;;;;;;;;;;;18.82;60.57;100816.00;15512957;28;20042;-48
2023/07/20 08:28:00;;;;;;;1.00;0.88;;;;;;;19.14;59.50;100815.09;15496507;28;19925;-48
2023/07/20 08:35:35;;;;;;;3.58;0.90;;;;;;;19.05;58.72;100828.38;15496427;28;20070;-48
2023/07/20 08:43:38;;;;;;;2.30;1.10;;;;;;;19.11;57.64;100815.59;15481465;28;20050;-54
2023/07/20 08:51:13;;;;;;;1.48;1.00;;;;;;;20.19;56.14;100822.16;15490693;28;20073;-46
2023/07/20 08:58:47;;;;;;;3.47;0.95;;;;;;;19.59;55.46;100827.22;15477611;28;20465;-49
2023/07/20 09:06:22;;;;;;;2.15;1.10;;;;;;;18.35;57.50;100821.34;15493261;28;20049;-45
2023/07/20 09:14:04;;;;;;;2.97;1.33;;;;;;;19.58;57.05;100812.81;15493356;28;20046;-47
2023/07/20 09:21:39;;;;;;;0.98;0.80;;;;;;;19.93;51.99;100824.88;15476135;28;20074;-45
2023/07/20 09:29:12;;;;;;;3.42;0.70;;;;;;;20.98;51.78;100818.81;15491843;28;20504;-47
2023/07/20 09:36:47;;;;;;;1.20;0.40;;;;;;;20.62;50.92;100810.72;15476219;28;20403;-52
2023/07/20 09:44:21;;;;;;;0.98;0.50;;;;;;;19.78;52.21;100812.06;15492892;28;20046;-52
2023/07/20 09:51:56;;;;;;;2.08;0.50;;;;;;;19.69;52.19;100821.03;15493259;28;20054;-47
2023/07/20 09:59:34;;;;;;;0.82;0.40;;;;;;;19.76;50.95;100819.66;15476716;28;20547;-49
2023/07/20 10:07:11;;;;;;;0.52;0.50;;;;;;;19.30;52.68;100833.09;15492881;28;20073;-47
2023/07/20 10:14:56;;;;;;;2.10;0.45;;;;;;;19.99;52.47;100820.25;15491797;28;20054;-47
2023/07/20 10:22:35;;;;;;;0.55;0.50;;;;;;;20.91;50.44;100817.47;15491746;28;20042;-46
2023/07/20 10:30:09;;;;;;;1.85;0.40;;;;;;;20.19;49.31;100817.56;15499936;28;20053;-46
2023/07/20 10:37:54;;;;;;;2.40;0.47;;;;;;;21.99;49.00;100815.88;15485384;28;20046;-47
2023/07/20 10:45:49;;;;;;;1.88;0.55;;;;;;;20.54;49.54;100816.72;15485082;28;20062;-46
2023/07/20 10:53:24;;;;;;;1.38;0.60;;;;;;;20.89;50.33;100824.03;15502427;28;20043;-50
2023/07/20 11:01:02;;;;;;;3.35;0.77;;;;;;;20.32;52.17;100827.06;15484613;28;20133;-47
2023/07/20 11:08:42;;;;;;;2.28;0.50;;;;;;;19.88;55.57;100838.50;15484853;28;20530;-47
2023/07/20 11:16:18;;;;;;;7.57;0.93;;;;;;;19.12;58.08;100852.63;15494985;23;20074;-55
2023/07/20 11:23:53;;;;;;;2.78;1.13;;;;;;;18.91;60.51;100859.03;15500471;28;20050;-54
2023/07/20 11:31:28;;;;;;;3.08;0.90;;;;;;;19.67;58.00;100848.50;15499718;28;20146;-50
2023/07/20 11:39:04;;;;;;;2.10;0.50;;;;;;;20.42;54.45;100828.97;15498752;28;20046;-53
2023/07/20 11:46:38;;;;;;;2.05;0.45;;;;;;;20.45;52.78;100831.97;15499388;28;20083;-52
2023/07/20 11:54:12;;;;;;;1.45;0.50;;;;;;;20.53;53.09;100823.28;15498628;28;20521;-53
2023/07/20 12:01:46;;;;;;;1.88;0.57;;;;;;;21.19;51.26;100825.03;15497559;28;20411;-52
2023/07/20 12:09:21;;;;;;;1.17;0.50;;;;;;;20.11;53.37;100832.53;15480258;28;20093;-53
2023/07/20 12:16:54;;;;;;;1.10;0.70;;;;;;;19.85;54.15;100826.22;15480010;28;20306;-52
2023/07/20 12:24:29;;;;;;;1.30;0.50;;;;;;;20.81;51.53;100829.25;15497362;28;20052;-52
2023/07/20 12:32:01;;;;;;;0.90;0.50;;;;;;;22.16;48.81;100827.25;15496338;28;20049;-55
2023/07/20 12:39:36;;;;;;;0.40;0.35;;;;;;;22.09;47.81;100826.72;15479280;28;20508;-55
2023/07/20 12:47:09;;;;;;;3.13;0.52;;;;;;;20.94;50.07;100823.22;15493825;28;20129;-53
2023/07/20 12:54:44;;;;;;;1.13;0.80;;;;;;;22.03;46.32;100823.22;15497180;28;20050;-54
2023/07/20 13:02:17;;;;;;;3.85;0.38;;;;;;;23.17;42.74;100822.72;15495444;28;20125;-53
2023/07/20 13:09:52;;;;;;;1.48;0.50;;;;;;;23.35;44.29;100815.63;15494784;28;20100;-57
2023/07/20 13:17:24;;;;;;;1.67;0.30;;;;;;;23.57;41.99;100806.03;15448243;28;20446;-55
2023/07/20 13:24:59;;;;;;;1.27;0.40;;;;;;;23.72;38.79;100800.34;15490065;28;20320;-57
2023/07/20 13:32:32;;;;;;;1.00;0.30;;;;;;;24.83;38.95;100782.31;15494557;28;20090;-57
2023/07/20 13:40:11;;;;;;;1.05;0.40;;;;;;;24.19;39.04;100788.34;15494697;28;20510;-55
2023/07/20 13:47:46;;;;;;;0.77;0.28;;;;;;;22.74;38.69;100788.97;15493361;28;20084;-56
2023/07/20 13:55:20;;;;;;;0.63;0.30;;;;;;;23.62;39.29;100773.88;15493144;28;20069;-56
2023/07/20 14:02:54;;;;;;;2.00;0.43;;;;;;;22.83;39.25;100775.44;15481111;28;20042;-55
2023/07/20 14:10:28;;;;;;;0.75;0.30;;;;;;;23.79;37.09;100770.66;15504511;28;20388;-53
2023/07/20 14:18:01;;;;;;;1.95;0.28;;;;;;;22.98;37.90;100772.56;15471393;28;20569;-57
2023/07/20 14:25:36;;;;;;;0.65;0.30;;;;;;;23.35;36.99;100747.16;15504655;28;20050;-55
2023/07/20 14:33:12;;;;;;;1.13;0.30;;;;;;;23.62;37.89;100760.19;15502591;28;20433;-57
2023/07/20 14:40:46;;;;;;;0.32;0.30;;;;;;;23.72;35.38;100764.72;15469879;28;20105;-55
2023/07/20 14:48:19;;;;;;;0.68;0.40;;;;;;;23.56;36.03;100753.16;15485953;28;20066;-57
2023/07/20 14:55:53;;;;;;;1.52;0.40;;;;;;;23.39;35.99;100750.94;15500015;28;20533;-55
2023/07/20 15:03:27;;;;;;;1.48;0.50;;;;;;;23.22;36.10;100742.41;15485171;28;20050;-53
2023/07/20 15:11:01;;;;;;;1.05;0.52;;;;;;;22.70;37.04;100757.00;15478624;28;20066;-57
2023/07/20 15:18:34;;;;;;;1.23;0.50;;;;;;;22.50;38.61;100723.28;15484069;28;20061;-56
2023/07/20 15:26:10;;;;;;;3.22;0.40;;;;;;;22.55;37.94;100766.19;15476093;28;20534;-56
2023/07/20 15:33:43;;;;;;;1.48;0.75;;;;;;;22.61;39.06;100778.69;15483599;28;20050;-56
2023/07/20 15:41:18;;;;;;;1.52;0.55;;;;;;;22.47;38.86;100769.53;15422155;28;20137;-53
2023/07/20 15:48:51;;;;;;;2.35;0.60;;;;;;;21.80;39.35;100772.00;15462700;28;20047;-57
2023/07/20 15:56:25;;;;;;;0.45;0.40;;;;;;;22.12;38.00;100771.50;15499360;28;20500;-51
2023/07/20 16:03:58;;;;;;;0.60;0.50;;;;;;;22.50;39.18;100761.56;15498351;28;20133;-57
2023/07/20 16:11:33;;;;;;;1.55;0.60;;;;;;;22.62;37.51;100764.75;15496032;28;20046;-50
2023/07/20 16:19:06;;;;;;;1.05;0.60;;;;;;;22.09;36.72;100728.31;15483423;28;20086;-52
2023/07/20 16:26:43;;;;;;;0.93;0.50;;;;;;;22.07;38.17;100764.13;15466516;28;20123;-52
2023/07/20 16:34:16;;;;;;;1.35;0.60;;;;;;;22.07;37.94;100766.88;15490552;28;20042;-49
2023/07/20 16:41:50;;;;;;;3.03;0.80;;;;;;;21.89;37.82;100764.84;15452156;28;20038;-51
2023/07/20 16:49:26;;;;;;;1.52;0.60;;;;;;;21.95;38.45;100763.69;15496418;28;20038;-51
2023/07/20 16:57:00;;;;;;;1.05;0.40;;;;;;;22.16;39.47;100753.44;15494813;28;20491;-49
2023/07/20 17:04:34;;;;;;;5.28;0.70;;;;;;;21.69;40.56;100765.00;15495890;28;20578;-49
2023/07/20 17:12:11;;;;;;;4.47;0.80;;;;;;;21.98;39.03;100775.97;15494101;23;20134;-51
2023/07/20 17:19:47;;;;;;;4.25;1.00;;;;;;;21.63;40.12;100775.94;15431580;28;20094;-50
2023/07/20 17:27:21;;;;;;;5.53;0.80;;;;;;;21.20;41.77;100790.34;15425669;28;20585;-45
2023/07/20 17:34:56;;;;;;;3.55;0.70;;;;;;;21.26;41.58;100784.56;15430305;28;20046;-51
2023/07/20 17:42:30;;;;;;;3.75;0.90;;;;;;;20.87;42.75;100779.81;15427731;28;20086;-50
2023/07/20 17:50:04;;;;;;;5.43;1.10;;;;;;;20.81;42.98;100786.41;15431671;28;20097;-45
2023/07/20 17:57:38;;;;;;;1.65;0.70;;;;;;;20.94;42.98;100786.88;15404846;28;20055;-47
2023/07/20 18:05:13;;;;;;;4.30;0.90;;;;;;;21.00;42.72;100785.81;15431787;28;20101;-49
2023/07/20 18:12:47;;;;;;;2.03;0.80;;;;;;;20.68;43.26;100786.16;15431425;28;20109;-50
2023/07/20 18:20:20;;;;;;;1.35;0.70;;;;;;;20.73;43.62;100799.78;15430973;28;20043;-46
2023/07/20 18:27:54;;;;;;;;;;;;;;;20.12;44.71;100801.44;15430147;28;20070;-47
2023/07/20 18:35:28;;;;;;;6.78;0.77;;;;;;;20.49;44.30;100800.38;15430412;28;20205;-48
2023/07/20 18:43:02;;;;;;;3.15;0.75;;;;;;;20.09;44.70;100807.44;15429150;28;20407;-49
2023/07/20 18:50:35;;;;;;;1.05;0.75;;;;;;;20.52;44.41;100807.22;15408078;28;20049;-48
2023/07/20 18:58:09;;;;;;;2.83;0.65;;;;;;;20.51;44.59;100814.53;15434851;28;20082;-47
2023/07/20 19:05:44;;;;;;;1.60;0.63;;;;;;;20.44;45.19;100816.72;15420481;28;20043;-46
2023/07/20 19:13:22;;;;;;;1.60;0.75;;;;;;;20.08;47.12;100821.34;15427055;28;20470;-46
2023/07/20 19:20:55;;;;;;;1.45;0.70;;;;;;;19.92;47.35;100830.59;15432410;28;20051;-46
2023/07/20 19:28:30;;;;;;;2.58;0.80;;;;;;;19.57;48.72;100832.13;15383045;28;20097;-49
2023/07/20 19:36:04;;;;;;;2.53;0.90;;;;;;;19.53;49.00;100842.72;15421200;28;20101;-50
2023/07/20 19:43:38;;;;;;;5.07;2.20;;;;;;;19.50;48.76;100848.72;15454168;28;20492;-47
2023/07/20 19:51:12;;;;;;;5.65;1.50;;;;;;;19.33;49.45;100848.09;15437118;28;20558;-46
2023/07/20 19:58:47;;;;;;;6.05;1.33;;;;;;;19.08;50.23;100856.97;15436929;28;20506;-46
2023/07/20 20:06:19;;;;;;;1.95;0.90;;;;;;;18.93;51.65;100865.84;15446050;28;20046;-50
2023/07/20 20:13:54;;;;;;;3.42;1.33;;;;;;;18.92;51.44;100866.91;15434681;28;20069;-52
2023/07/20 20:21:26;;;;;;;3.67;1.20;;;;;;;18.69;51.98;100870.03;15435710;28;20045;-47
2023/07/20 20:29:01;;;;;;;4.30;1.48;;;;;;;18.41;52.38;100879.28;15436042;28;20053;-47
2023/07/20 20:36:34;;;;;;;2.88;1.00;;;;;;;17.96;54.03;100880.50;15435237;28;20150;-47
2023/07/20 20:44:08;;;;;;;2.03;1.13;;;;;;;18.02;53.65;100883.00;15435453;28;20130;-49
2023/07/20 20:51:42;;;;;;;4.05;1.40;;;;;;;17.80;54.38;100885.75;15434510;28;20269;-48
2023/07/20 20:59:19;;;;;;;2.92;1.23;;;;;;;17.66;54.67;100883.66;15435174;28;20157;-49
2023/07/20 21:06:52;;;;;;;4.32;1.25;;;;;;;17.35;56.02;100880.59;15433356;28;20052;-49
2023/07/20 21:14:26;;;;;;;;;;;;;;;17.03;57.63;100881.25;15432810;28;20503;-46
2023/07/20 21:21:59;;;;;;;1.95;1.17;;;;;;;17.05;56.92;100880.97;15434252;28;19926;-48
2023/07/20 21:29:33;;;;;;;2.45;1.35;;;;;;;16.91;57.66;100885.13;15434019;28;20043;-49
2023/07/20 21:37:06;;;;;;;2.92;1.10;;;;;;;16.80;57.63;100884.16;15433204;28;20062;-48
2023/07/20 21:44:41;;;;;;;2.13;1.10;;;;;;;16.44;59.08;100880.84;15416186;28;20050;-50
2023/07/20 21:52:14;;;;;;;2.72;1.15;;;;;;;16.35;59.20;100890.44;15433183;28;20066;-51
2023/07/20 21:59:49;;;;;;;3.45;1.20;;;;;;;16.11;60.08;100895.16;15432499;28;20047;-50
2023/07/20 22:07:21;;;;;;;4.43;1.05;;;;;;;15.92;60.58;100897.25;15432211;28;20051;-48
2023/07/20 22:14:56;;;;;;;3.72;1.25;;;;;;;15.68;61.10;100899.22;15430067;28;20444;-47
2023/07/20 22:22:30;;;;;;;2.40;1.10;;;;;;;15.65;61.18;100905.09;15435741;28;20459;-47
2023/07/20 22:30:05;;;;;;;;;;;;;;;15.49;62.46;100897.72;15442625;28;20047;-48
2023/07/20 22:37:38;;;;;;;2.97;1.50;;;;;;;15.37;62.40;100900.41;15457880;28;19928;-51
2023/07/20 22:45:13;;;;;;;4.43;1.73;;;;;;;15.34;62.52;100884.69;15440908;28;20042;-48
2023/07/20 22:52:48;;;;;;;5.35;1.30;;;;;;;15.32;62.59;100889.50;15441020;28;20121;-49
2023/07/20 23:00:26;;;;;;;5.75;1.27;;;;;;;15.21;63.18;100887.66;15441967;28;20043;-49
2023/07/20 23:08:01;;;;;;;2.80;1.63;;;;;;;15.25;62.57;100883.41;15442796;28;20057;-48
2023/07/20 23:15:38;;;;;;;4.20;1.55;;;;;;;14.96;62.39;100882.47;15490018;23;20050;-51
2023/07/20 23:23:11;;;;;;;3.80;1.40;;;;;;;14.69;63.45;100884.84;15500187;28;20046;-51
2023/07/20 23:30:49;;;;;;;4.55;1.63;;;;;;;14.70;63.85;100881.09;15498726;28;20066;-49
2023/07/20 23:38:21;;;;;;;3.95;1.70;;;;;;;14.55;64.09;100870.72;15498913;28;20110;-54
2023/07/20 23:45:55;;;;;;;4.05;1.80;;;;;;;14.29;64.89;100863.84;15499794;28;20550;-52
2023/07/20 23:53:29;;;;;;;5.53;1.60;;;;;;;14.12;65.70;100860.16;15497954;28;20094;-53
